Abis Bremen — PCJO — position and weather

sailwx.info

Track history (hours):
 
Tides and Currents Weather Stations Pressure Air Temp Water Temp Dewpoint Dewpoint Depression Visibility Wind Speed Wind Dir Waves Ship Positions

Abis Bremen

Last reported at 2017-Jan-18 10:33 UTC. Time now 2017-Jan-21 04:27 UTC.
Position N 63°48' E 011°25'.

Length 90 m; draft 5.2 m.

Type: Ship. MMSI: 246778880.

Date/timePositionNaut miles runAvg speedWind from/ knotsBaromVisibWave heightAir tempDewpointWater temp
2017-Jan-18 10:33N 63°48' E 011°25'10 9.8
2017-Jan-18 09:33N 63°45' E 011°04'1110.7
2017-Jan-18 08:34N 63°39' E 010°44'1010.3
2017-Jan-18 07:33N 63°33' E 010°25'1010.4
2017-Jan-18 06:34N 63°29' E 010°04'8 8.2
2017-Jan-18 05:34N 63°34' E 009°50'7 7.0
2017-Jan-18 04:34N 63°38' E 009°37'1110.5
2017-Jan-18 03:30N 63°32' E 009°16'2511.4
2017-Jan-18 01:16N 63°22' E 008°24'912.0
2017-Jan-18 00:34N 63°16' E 008°10'1110.9
2017-Jan-17 23:34N 63°13' E 007°47'5 5.0
2017-Jan-17 22:34N 63°15' E 007°37'6 5.6
2017-Jan-17 21:34N 63°14' E 007°25'9 8.7
2017-Jan-17 20:31N 63°10' E 007°07'  
2017-Jan-14 21:05N 52°31' E 003°45'3 6.0
2017-Jan-14 20:31N 52°29' E 003°49'6 5.8
2017-Jan-14 19:33N 52°23' E 003°52'7 6.8
2017-Jan-14 18:33N 52°17' E 003°52'7 7.5
2017-Jan-14 17:34N 52°09' E 003°54'6 5.7
2017-Jan-14 16:34N 52°04' E 003°56'7 7.2
2017-Jan-14 15:34N 51°59' E 004°05'1 1.2
2017-Jan-14 14:32N 51°58' E 004°03'0 0.0
2017-Jan-14 13:32N 51°58' E 004°03'0 0.0
2017-Jan-14 12:32N 51°58' E 004°03'0 0.0
2017-Jan-14 11:32N 51°58' E 004°03'0 0.0
2017-Jan-14 10:32N 51°58' E 004°03'0 0.0
2017-Jan-14 09:32N 51°58' E 004°03'0 0.0
2017-Jan-14 08:32N 51°58' E 004°03'0 0.0
2017-Jan-14 07:32N 51°58' E 004°03'0 0.0
2017-Jan-14 06:32N 51°58' E 004°03'0 0.0
2017-Jan-14 05:32N 51°58' E 004°03'0 0.0
2017-Jan-14 04:32N 51°58' E 004°03'0 0.0
2017-Jan-14 03:32N 51°58' E 004°03'0 0.0
2017-Jan-13 23:32N 51°58' E 004°03'0 0.0
2017-Jan-13 22:32N 51°58' E 004°03'0 0.0
2017-Jan-13 21:32N 51°58' E 004°03'0 0.0
2017-Jan-13 20:32N 51°58' E 004°03'0 0.0
2017-Jan-13 19:32N 51°58' E 004°03'0 0.0
2017-Jan-13 18:32N 51°58' E 004°03'0 0.0
2017-Jan-13 17:32N 51°58' E 004°03'0 0.0
2017-Jan-13 16:32N 51°58' E 004°03'0 0.0
2017-Jan-13 15:32N 51°58' E 004°03'0 0.0
2017-Jan-13 14:32N 51°58' E 004°03'0 0.0
2017-Jan-13 13:32N 51°58' E 004°03'0 0.0
2017-Jan-13 12:32N 51°58' E 004°03'0 0.0
2017-Jan-13 11:32N 51°58' E 004°03'0 0.0
2017-Jan-13 10:32N 51°58' E 004°03'0 0.0
2017-Jan-13 09:32N 51°58' E 004°03'0 0.0
2017-Jan-13 08:32N 51°58' E 004°03'0 0.0
2017-Jan-13 07:32N 51°58' E 004°03'0 0.0
2017-Jan-13 06:32N 51°58' E 004°03'0 0.3
2017-Jan-13 05:33N 51°58' E 004°04'5 5.2
2017-Jan-13 04:33N 51°56' E 004°12'3 2.7
2017-Jan-13 03:33N 51°54' E 004°14'0 0.0
2017-Jan-13 02:33N 51°54' E 004°14'0 0.0
2017-Jan-13 01:33N 51°54' E 004°14'0 0.0
2017-Jan-13 00:33N 51°54' E 004°14'0 0.0
2017-Jan-12 23:33N 51°54' E 004°14'0 0.0
2017-Jan-12 22:33N 51°54' E 004°14'0 0.0
2017-Jan-12 21:33N 51°54' E 004°14'0 0.0
2017-Jan-12 20:33N 51°54' E 004°14'0 0.0
2017-Jan-12 19:33N 51°54' E 004°14'0 0.0
2017-Jan-12 18:33N 51°54' E 004°14'0 0.0
2017-Jan-12 17:33N 51°54' E 004°14'0 0.0
2017-Jan-12 16:33N 51°54' E 004°14'0 0.0
2017-Jan-12 15:33N 51°54' E 004°14'0 0.0
2017-Jan-12 14:33N 51°54' E 004°14'0 0.0
2017-Jan-12 13:33N 51°54' E 004°14'0 0.0
2017-Jan-12 12:33N 51°54' E 004°14'0 0.0
2017-Jan-12 11:33N 51°54' E 004°14'0 0.0
2017-Jan-12 10:33N 51°54' E 004°14'0 0.0
2017-Jan-12 09:33N 51°54' E 004°14'0 0.0
2017-Jan-12 08:33N 51°54' E 004°14'0 0.0
2017-Jan-12 07:33N 51°54' E 004°14'0 0.0
2017-Jan-12 06:33N 51°54' E 004°14'0 0.0
2017-Jan-12 05:33N 51°54' E 004°14'0 0.0
2017-Jan-12 04:33N 51°54' E 004°14'0 0.0
2017-Jan-12 03:33N 51°54' E 004°14'0 0.0
2017-Jan-12 02:33N 51°54' E 004°14'0 0.0
2017-Jan-12 01:33N 51°54' E 004°14'0 0.0
2017-Jan-12 00:33N 51°54' E 004°14'0 0.0
2017-Jan-11 23:33N 51°54' E 004°14'0 0.0
2017-Jan-11 22:33N 51°54' E 004°14'0 0.0
2017-Jan-11 21:33N 51°54' E 004°14'0 0.0
2017-Jan-11 20:33N 51°54' E 004°14'0 0.0
2017-Jan-11 19:33N 51°54' E 004°14'0 0.0
2017-Jan-11 18:33N 51°54' E 004°14'1 0.6
2017-Jan-11 17:33N 51°54' E 004°14'2 2.2
2017-Jan-11 16:33N 51°56' E 004°12'9 8.6
2017-Jan-11 15:33N 51°51' E 004°23'8 8.0
2017-Jan-11 14:33N 51°48' E 004°35'7 6.7
2017-Jan-11 13:33N 51°42' E 004°37'0 0.2
2017-Jan-11 12:30N 51°42' E 004°37'0 0.0
2017-Jan-11 11:30N 51°42' E 004°37'0 0.0
2017-Jan-11 10:30N 51°42' E 004°37'0 0.0
2017-Jan-11 09:19N 51°42' E 004°37'0 0.0
2017-Jan-11 08:30N 51°42' E 004°37'0 0.0
2017-Jan-11 07:33N 51°42' E 004°37'0 0.0
2017-Jan-11 06:30N 51°42' E 004°37'0 0.0
2017-Jan-11 05:33N 51°42' E 004°37'0 0.0
2017-Jan-11 04:33N 51°42' E 004°37'0 0.0
2017-Jan-11 03:33N 51°42' E 004°37'0 0.0
2017-Jan-11 02:33N 51°42' E 004°37'0 0.0
2017-Jan-11 01:28N 51°42' E 004°37'0 0.0
2017-Jan-11 00:33N 51°42' E 004°37'0 0.0
2017-Jan-10 23:30N 51°42' E 004°37'0 0.0
2017-Jan-10 22:33N 51°42' E 004°37'0 0.0
2017-Jan-10 21:33N 51°42' E 004°37'0 0.0
2017-Jan-10 20:30N 51°42' E 004°37'0 0.0
2017-Jan-10 19:33N 51°42' E 004°37'0 0.0
2017-Jan-10 18:30N 51°42' E 004°37'0 0.0
2017-Jan-10 17:28N 51°42' E 004°37'0 0.0
2017-Jan-10 16:30N 51°42' E 004°37'0 0.0
2017-Jan-10 15:31N 51°42' E 004°37'0 0.0
2017-Jan-10 14:28N 51°42' E 004°37'0 0.0
2017-Jan-10 13:33N 51°42' E 004°37'0 0.0
2017-Jan-10 12:30N 51°42' E 004°37'0 0.0
2017-Jan-10 11:30N 51°42' E 004°37'0 0.0
2017-Jan-10 10:33N 51°42' E 004°37'0 0.0
2017-Jan-10 09:33N 51°42' E 004°37'0 0.0
2017-Jan-10 08:33N 51°42' E 004°37'0 0.0
2017-Jan-10 07:30N 51°42' E 004°37'0 0.0
2017-Jan-10 06:28N 51°42' E 004°37'0 0.0
2017-Jan-10 05:33N 51°42' E 004°37'0 0.0
2017-Jan-10 04:30N 51°42' E 004°37'0 0.0
2017-Jan-10 03:33N 51°42' E 004°37'0 0.0
2017-Jan-10 02:33N 51°42' E 004°37'0 0.0
2017-Jan-10 01:24N 51°42' E 004°37'0 0.0
2017-Jan-10 00:18N 51°42' E 004°37'0 0.0
2017-Jan-09 23:33N 51°42' E 004°37'0 0.0
2017-Jan-09 22:33N 51°42' E 004°37'0 0.0
2017-Jan-09 21:33N 51°42' E 004°37'0 0.0
2017-Jan-09 20:28N 51°42' E 004°37'0 0.0
2017-Jan-09 19:33N 51°42' E 004°37'1 0.9
2017-Jan-09 18:33N 51°42' E 004°37'6 6.0
2017-Jan-09 17:33N 51°48' E 004°36'7 7.4
2017-Jan-09 16:33N 51°51' E 004°24'7 7.3
2017-Jan-09 15:33N 51°55' E 004°15'8 8.2
2017-Jan-09 14:33N 51°59' E 004°04'9 9.4
2017-Jan-09 13:33N 51°60' E 003°48'5 4.7
2017-Jan-09 12:31N 51°56' E 003°43'0 0.0
2017-Jan-09 11:31N 51°56' E 003°43'0 0.0
2017-Jan-09 10:31N 51°56' E 003°43'0 0.0
2017-Jan-09 09:31N 51°56' E 003°43'0 0.0
2017-Jan-09 08:31N 51°56' E 003°43'0 0.1
2017-Jan-09 07:28N 51°56' E 003°43'0 0.0
2017-Jan-09 06:31N 51°56' E 003°43'0 0.0
2017-Jan-09 05:28N 51°56' E 003°43'0 0.0
2017-Jan-09 04:31N 51°56' E 003°43'0 0.0
2017-Jan-09 03:31N 51°56' E 003°43'0 0.0
2017-Jan-09 02:31N 51°56' E 003°43'0 0.0
2017-Jan-09 01:31N 51°56' E 003°43'0 0.0
2017-Jan-09 00:31N 51°56' E 003°43'0 0.0
2017-Jan-08 23:28N 51°56' E 003°43'0 0.0
2017-Jan-08 22:19N 51°56' E 003°43'0 0.0
2017-Jan-08 21:32N 51°56' E 003°43'0 0.0
2017-Jan-08 20:31N 51°56' E 003°43'0 0.0
2017-Jan-08 16:10N 51°56' E 003°43'0 0.0
2017-Jan-08 15:22N 51°56' E 003°43'0 0.0
2017-Jan-08 13:31N 51°56' E 003°43'0 0.0
2017-Jan-08 12:31N 51°56' E 003°43'0 0.0
2017-Jan-08 11:28N 51°56' E 003°43'  
Track history (hours):
 
Tides and Currents Weather Stations Pressure Air Temp Water Temp Dewpoint Dewpoint Depression Visibility Wind Speed Wind Dir Waves Ship Positions

Abis Bremen

Last reported at 2017-Jan-18 10:33 UTC. Time now 2017-Jan-21 04:27 UTC.
Position N 63°48' E 011°25'.

Length 90 m; draft 5.2 m.

Type: Ship. MMSI: 246778880.

Date/timePositionNaut miles runAvg speedWind from/ knotsBaromVisibWave heightAir tempDewpointWater temp
2017-Jan-18 10:33N 63°48' E 011°25'10 9.8
2017-Jan-18 09:33N 63°45' E 011°04'1110.7
2017-Jan-18 08:34N 63°39' E 010°44'1010.3
2017-Jan-18 07:33N 63°33' E 010°25'1010.4
2017-Jan-18 06:34N 63°29' E 010°04'8 8.2
2017-Jan-18 05:34N 63°34' E 009°50'7 7.0
2017-Jan-18 04:34N 63°38' E 009°37'1110.5
2017-Jan-18 03:30N 63°32' E 009°16'2511.4
2017-Jan-18 01:16N 63°22' E 008°24'912.0
2017-Jan-18 00:34N 63°16' E 008°10'1110.9
2017-Jan-17 23:34N 63°13' E 007°47'5 5.0
2017-Jan-17 22:34N 63°15' E 007°37'6 5.6
2017-Jan-17 21:34N 63°14' E 007°25'9 8.7
2017-Jan-17 20:31N 63°10' E 007°07'  
2017-Jan-14 21:05N 52°31' E 003°45'3 6.0
2017-Jan-14 20:31N 52°29' E 003°49'6 5.8
2017-Jan-14 19:33N 52°23' E 003°52'7 6.8
2017-Jan-14 18:33N 52°17' E 003°52'7 7.5
2017-Jan-14 17:34N 52°09' E 003°54'6 5.7
2017-Jan-14 16:34N 52°04' E 003°56'7 7.2
2017-Jan-14 15:34N 51°59' E 004°05'1 1.2
2017-Jan-14 14:32N 51°58' E 004°03'0 0.0
2017-Jan-14 13:32N 51°58' E 004°03'0 0.0
2017-Jan-14 12:32N 51°58' E 004°03'0 0.0
2017-Jan-14 11:32N 51°58' E 004°03'0 0.0
2017-Jan-14 10:32N 51°58' E 004°03'0 0.0
2017-Jan-14 09:32N 51°58' E 004°03'0 0.0
2017-Jan-14 08:32N 51°58' E 004°03'0 0.0
2017-Jan-14 07:32N 51°58' E 004°03'0 0.0
2017-Jan-14 06:32N 51°58' E 004°03'0 0.0
2017-Jan-14 05:32N 51°58' E 004°03'0 0.0
2017-Jan-14 04:32N 51°58' E 004°03'0 0.0
2017-Jan-14 03:32N 51°58' E 004°03'0 0.0
2017-Jan-13 23:32N 51°58' E 004°03'0 0.0
2017-Jan-13 22:32N 51°58' E 004°03'0 0.0
2017-Jan-13 21:32N 51°58' E 004°03'0 0.0
2017-Jan-13 20:32N 51°58' E 004°03'0 0.0
2017-Jan-13 19:32N 51°58' E 004°03'0 0.0
2017-Jan-13 18:32N 51°58' E 004°03'0 0.0
2017-Jan-13 17:32N 51°58' E 004°03'0 0.0
2017-Jan-13 16:32N 51°58' E 004°03'0 0.0
2017-Jan-13 15:32N 51°58' E 004°03'0 0.0
2017-Jan-13 14:32N 51°58' E 004°03'0 0.0
2017-Jan-13 13:32N 51°58' E 004°03'0 0.0
2017-Jan-13 12:32N 51°58' E 004°03'0 0.0
2017-Jan-13 11:32N 51°58' E 004°03'0 0.0
2017-Jan-13 10:32N 51°58' E 004°03'0 0.0
2017-Jan-13 09:32N 51°58' E 004°03'0 0.0
2017-Jan-13 08:32N 51°58' E 004°03'0 0.0
2017-Jan-13 07:32N 51°58' E 004°03'0 0.0
2017-Jan-13 06:32N 51°58' E 004°03'0 0.3
2017-Jan-13 05:33N 51°58' E 004°04'5 5.2
2017-Jan-13 04:33N 51°56' E 004°12'3 2.7
2017-Jan-13 03:33N 51°54' E 004°14'0 0.0
2017-Jan-13 02:33N 51°54' E 004°14'0 0.0
2017-Jan-13 01:33N 51°54' E 004°14'0 0.0
2017-Jan-13 00:33N 51°54' E 004°14'0 0.0
2017-Jan-12 23:33N 51°54' E 004°14'0 0.0
2017-Jan-12 22:33N 51°54' E 004°14'0 0.0
2017-Jan-12 21:33N 51°54' E 004°14'0 0.0
2017-Jan-12 20:33N 51°54' E 004°14'0 0.0
2017-Jan-12 19:33N 51°54' E 004°14'0 0.0
2017-Jan-12 18:33N 51°54' E 004°14'0 0.0
2017-Jan-12 17:33N 51°54' E 004°14'0 0.0
2017-Jan-12 16:33N 51°54' E 004°14'0 0.0
2017-Jan-12 15:33N 51°54' E 004°14'0 0.0
2017-Jan-12 14:33N 51°54' E 004°14'0 0.0
2017-Jan-12 13:33N 51°54' E 004°14'0 0.0
2017-Jan-12 12:33N 51°54' E 004°14'0 0.0
2017-Jan-12 11:33N 51°54' E 004°14'0 0.0
2017-Jan-12 10:33N 51°54' E 004°14'0 0.0
2017-Jan-12 09:33N 51°54' E 004°14'0 0.0
2017-Jan-12 08:33N 51°54' E 004°14'0 0.0
2017-Jan-12 07:33N 51°54' E 004°14'0 0.0
2017-Jan-12 06:33N 51°54' E 004°14'0 0.0
2017-Jan-12 05:33N 51°54' E 004°14'0 0.0
2017-Jan-12 04:33N 51°54' E 004°14'0 0.0
2017-Jan-12 03:33N 51°54' E 004°14'0 0.0
2017-Jan-12 02:33N 51°54' E 004°14'0 0.0
2017-Jan-12 01:33N 51°54' E 004°14'0 0.0
2017-Jan-12 00:33N 51°54' E 004°14'0 0.0
2017-Jan-11 23:33N 51°54' E 004°14'0 0.0
2017-Jan-11 22:33N 51°54' E 004°14'0 0.0
2017-Jan-11 21:33N 51°54' E 004°14'0 0.0
2017-Jan-11 20:33N 51°54' E 004°14'0 0.0
2017-Jan-11 19:33N 51°54' E 004°14'0 0.0
2017-Jan-11 18:33N 51°54' E 004°14'1 0.6
2017-Jan-11 17:33N 51°54' E 004°14'2 2.2
2017-Jan-11 16:33N 51°56' E 004°12'9 8.6
2017-Jan-11 15:33N 51°51' E 004°23'8 8.0
2017-Jan-11 14:33N 51°48' E 004°35'7 6.7
2017-Jan-11 13:33N 51°42' E 004°37'0 0.2
2017-Jan-11 12:30N 51°42' E 004°37'0 0.0
2017-Jan-11 11:30N 51°42' E 004°37'0 0.0
2017-Jan-11 10:30N 51°42' E 004°37'0 0.0
2017-Jan-11 09:19N 51°42' E 004°37'0 0.0
2017-Jan-11 08:30N 51°42' E 004°37'0 0.0
2017-Jan-11 07:33N 51°42' E 004°37'0 0.0
2017-Jan-11 06:30N 51°42' E 004°37'0 0.0
2017-Jan-11 05:33N 51°42' E 004°37'0 0.0
2017-Jan-11 04:33N 51°42' E 004°37'0 0.0
2017-Jan-11 03:33N 51°42' E 004°37'0 0.0
2017-Jan-11 02:33N 51°42' E 004°37'0 0.0
2017-Jan-11 01:28N 51°42' E 004°37'0 0.0
2017-Jan-11 00:33N 51°42' E 004°37'0 0.0
2017-Jan-10 23:30N 51°42' E 004°37'0 0.0
2017-Jan-10 22:33N 51°42' E 004°37'0 0.0
2017-Jan-10 21:33N 51°42' E 004°37'0 0.0
2017-Jan-10 20:30N 51°42' E 004°37'0 0.0
2017-Jan-10 19:33N 51°42' E 004°37'0 0.0
2017-Jan-10 18:30N 51°42' E 004°37'0 0.0
2017-Jan-10 17:28N 51°42' E 004°37'0 0.0
2017-Jan-10 16:30N 51°42' E 004°37'0 0.0
2017-Jan-10 15:31N 51°42' E 004°37'0 0.0
2017-Jan-10 14:28N 51°42' E 004°37'0 0.0
2017-Jan-10 13:33N 51°42' E 004°37'0 0.0
2017-Jan-10 12:30N 51°42' E 004°37'0 0.0
2017-Jan-10 11:30N 51°42' E 004°37'0 0.0
2017-Jan-10 10:33N 51°42' E 004°37'0 0.0
2017-Jan-10 09:33N 51°42' E 004°37'0 0.0
2017-Jan-10 08:33N 51°42' E 004°37'0 0.0
2017-Jan-10 07:30N 51°42' E 004°37'0 0.0
2017-Jan-10 06:28N 51°42' E 004°37'0 0.0
2017-Jan-10 05:33N 51°42' E 004°37'0 0.0
2017-Jan-10 04:30N 51°42' E 004°37'0 0.0
2017-Jan-10 03:33N 51°42' E 004°37'0 0.0
2017-Jan-10 02:33N 51°42' E 004°37'0 0.0
2017-Jan-10 01:24N 51°42' E 004°37'0 0.0
2017-Jan-10 00:18N 51°42' E 004°37'0 0.0
2017-Jan-09 23:33N 51°42' E 004°37'0 0.0
2017-Jan-09 22:33N 51°42' E 004°37'0 0.0
2017-Jan-09 21:33N 51°42' E 004°37'0 0.0
2017-Jan-09 20:28N 51°42' E 004°37'0 0.0
2017-Jan-09 19:33N 51°42' E 004°37'1 0.9
2017-Jan-09 18:33N 51°42' E 004°37'6 6.0
2017-Jan-09 17:33N 51°48' E 004°36'7 7.4
2017-Jan-09 16:33N 51°51' E 004°24'7 7.3
2017-Jan-09 15:33N 51°55' E 004°15'8 8.2
2017-Jan-09 14:33N 51°59' E 004°04'9 9.4
2017-Jan-09 13:33N 51°60' E 003°48'5 4.7
2017-Jan-09 12:31N 51°56' E 003°43'0 0.0
2017-Jan-09 11:31N 51°56' E 003°43'0 0.0
2017-Jan-09 10:31N 51°56' E 003°43'0 0.0
2017-Jan-09 09:31N 51°56' E 003°43'0 0.0
2017-Jan-09 08:31N 51°56' E 003°43'0 0.1
2017-Jan-09 07:28N 51°56' E 003°43'0 0.0
2017-Jan-09 06:31N 51°56' E 003°43'0 0.0
2017-Jan-09 05:28N 51°56' E 003°43'0 0.0
2017-Jan-09 04:31N 51°56' E 003°43'0 0.0
2017-Jan-09 03:31N 51°56' E 003°43'0 0.0
2017-Jan-09 02:31N 51°56' E 003°43'0 0.0
2017-Jan-09 01:31N 51°56' E 003°43'0 0.0
2017-Jan-09 00:31N 51°56' E 003°43'0 0.0
2017-Jan-08 23:28N 51°56' E 003°43'0 0.0
2017-Jan-08 22:19N 51°56' E 003°43'0 0.0
2017-Jan-08 21:32N 51°56' E 003°43'0 0.0
2017-Jan-08 20:31N 51°56' E 003°43'0 0.0
2017-Jan-08 16:10N 51°56' E 003°43'0 0.0
2017-Jan-08 15:22N 51°56' E 003°43'0 0.0
2017-Jan-08 13:31N 51°56' E 003°43'0 0.0
2017-Jan-08 12:31N 51°56' E 003°43'0 0.0
2017-Jan-08 11:28N 51°56' E 003°43'  

Dump ship's entire track history